Monarch, Utah
Current Conditions -  °F | °C
As of 7:53 AM on Monday 22 Dec 2014 (Local Time) from KVEL Reporting Station
Light Rain Light Rain  
Wind Chill: 34°   Ceiling: 3600
Heat Index: 34°   Visibility: 10mi
Dew Point: 32°   Wind: 0mph
Humidity: 92%   Direction: NA
Pressure: 29.87"   Gusts: NA
Location:  40.5914°N, 110.379°W
Report Text: KVEL 221453Z AUTO 00000KT 10SM -RA OVC036 01/00 A2987 RMK AO2 SLP124 P0001 60002 T00110000 50002
Loading
Personal Weather Stations






























Interactive Weather Map New forecast layout! Learn more

10-Day Weather Forecast

Advertisements
Track Severe Weather on mobile